Startpagina
METAR-TAF:

METAR-TAF

Vliegvelden :

Aeroporto di Lugano

Lugano, Zwitserland

breedte: 46-00N, lengte: 008-58E, hoogte: 273 m

Actueel weer

Dit bericht is 30 minuten geleden gemaakt, om 20:50 UTC
Wind 2 kt uit variabele richting
Temperatuur 21°C
Vochtigheid 78%
Druk 1015 hPa
Zicht 10 km of meer
Weinig wolken op 11000 ft

METAR: LSZA 182050Z AUTO VRB02KT 9999 FEW110 21/17 Q1015

Tijdstip: 23:20 (21:20 UTC)

Verwachting

Dit bericht is 6 uur en het 55 minuten geleden gemaakt, om 14:25 UTC
Verwachting geldig van 18 om 15 UTC tot 18 om 24 UTC
Wind 6 kt uit het zuiden
Zicht 10 km of meer
Weinig wolken op 5000 ft, Stapelwolken.
Verspreide wolken op 6000 ft
Kans 30% :
Tijdelijke
van 18 om 15 UTC tot 18 om 17 UTC
regenbuien

TAF: LSZA 181425Z 1815/1824 19006KT 9999 FEW050TCU SCT060 PROB30 TEMPO 1815/1817 SHRA

Waarnemingen en weersverwachtingen van meer dan 4000 vliegvelden (METAR en TAF).

De beschikbare stations zijn de gele en rode punten op de kaart.

Ga met uw muis naar het station om de naam te zien.

Klik dan om waarnemingen en weersverwachtingen te zien.

kaart wijzigen: klik op de groene knoppen met een zwart kruis om in te zoomen, op de groene knop met een streepje om uit te zoomen of op de groene pijlen voor aangrenzende kaarten.


METAR-TAF: